Time;durP1;ratioP1;P1;durP2;ratioP2;P2;SDS_P1;SDS_P2;PMS_P1;PMS_P2;Temp;Humidity;BMP_temperature;BMP_pressure;BME280_temperature;BME280_humidity;BME280_pressure;Samples;Min_cycle;Max_cycle;Signal;HPM_P1;HPM_P2
2022/01/26 00:00:56;;;;;;;3.97;3.22;;;17.40;55.30;;;;;;5011744;28;20106;-61
2022/01/26 00:06:16;;;;;;;4.30;3.40;;;17.40;55.30;;;;;;5021603;28;20057;-62
2022/01/26 00:08:41;;;;;;;3.13;2.80;;;17.40;55.20;;;;;;5005279;28;20531;-63
2022/01/26 00:11:07;;;;;;;5.13;3.22;;;17.40;55.30;;;;;;5021461;28;20034;-62
2022/01/26 00:13:32;;;;;;;5.55;3.38;;;17.40;55.30;;;;;;5015135;28;20037;-62
2022/01/26 00:16:01;;;;;;;4.05;3.22;;;17.40;55.30;;;;;;5011468;28;20089;-62
2022/01/26 00:18:30;;;;;;;3.85;2.85;;;17.40;55.30;;;;;;5020794;28;20079;-62
2022/01/26 00:21:03;;;;;;;5.15;3.35;;;17.40;55.90;;;;;;5019706;28;20444;-63
2022/01/26 00:26:25;;;;;;;4.03;2.90;;;17.40;55.20;;;;;;5011726;28;20032;-61
2022/01/26 00:29:12;;;;;;;4.05;2.85;;;17.30;55.20;;;;;;5015627;28;20485;-62
2022/01/26 00:39:59;;;;;;;4.20;2.95;;;17.30;55.10;;;;;;5004563;28;20095;-62
2022/01/26 00:42:27;;;;;;;3.75;2.55;;;17.30;55.10;;;;;;5006507;28;20041;-61
2022/01/26 00:44:53;;;;;;;4.43;2.58;;;17.30;55.10;;;;;;5015443;28;20026;-61
2022/01/26 00:47:18;;;;;;;3.67;2.70;;;17.30;55.00;;;;;;4999228;28;20034;-63
2022/01/26 00:49:44;;;;;;;3.28;2.30;;;17.30;55.00;;;;;;5006100;28;20032;-60
2022/01/26 00:52:14;;;;;;;3.75;2.92;;;17.30;55.00;;;;;;5018169;28;20037;-57
2022/01/26 00:54:39;;;;;;;3.22;2.50;;;17.30;55.00;;;;;;5007957;28;20033;-60
2022/01/26 00:57:05;;;;;;;3.30;2.45;;;17.30;55.00;;;;;;5008761;28;20033;-61
2022/01/26 00:59:30;;;;;;;3.88;2.70;;;17.30;55.60;;;;;;5008764;28;20022;-59
2022/01/26 01:01:56;;;;;;;3.20;2.45;;;17.30;54.90;;;;;;5009601;28;20562;-55
2022/01/26 01:04:22;;;;;;;2.15;1.95;;;17.30;55.50;;;;;;5022164;28;20033;-60
2022/01/26 01:06:53;;;;;;;2.72;2.45;;;17.30;54.90;;;;;;5005610;28;20029;-62
2022/01/26 01:09:21;;;;;;;2.22;2.00;;;17.30;54.90;;;;;;5015123;28;20026;-60
2022/01/26 01:11:46;;;;;;;2.95;2.05;;;17.30;55.00;;;;;;5017513;28;20071;-60
2022/01/26 01:14:12;;;;;;;2.72;2.35;;;17.30;54.90;;;;;;5022452;28;20483;-54
2022/01/26 01:16:37;;;;;;;3.13;2.40;;;17.20;54.90;;;;;;5013059;28;20037;-61
2022/01/26 01:19:08;;;;;;;2.95;2.30;;;17.30;54.90;;;;;;5023625;28;20041;-62
2022/01/26 01:22:04;;;;;;;3.80;2.80;;;17.20;54.90;;;;;;5019096;28;20026;-58
2022/01/26 01:27:29;;;;;;;2.33;1.98;;;17.30;55.00;;;;;;5004689;28;20072;-61
2022/01/26 01:30:05;;;;;;;3.35;2.28;;;17.20;54.90;;;;;;5006828;28;20120;-57
2022/01/26 01:32:39;;;;;;;2.15;1.95;;;17.20;54.80;;;;;;5013756;28;20026;-59
2022/01/26 01:35:10;;;;;;;2.92;1.95;;;17.20;54.90;;;;;;5024268;28;20032;-59
2022/01/26 01:37:35;;;;;;;2.42;1.92;;;17.20;54.90;;;;;;5005783;28;20500;-59
2022/01/26 01:40:01;;;;;;;2.17;1.75;;;17.20;54.90;;;;;;5012372;28;20041;-60
2022/01/26 01:42:27;;;;;;;2.28;2.08;;;17.20;54.80;;;;;;5013640;28;20112;-60
2022/01/26 01:44:52;;;;;;;3.78;2.13;;;17.20;54.90;;;;;;5019104;28;20110;-61
2022/01/26 01:47:18;;;;;;;2.55;1.98;;;17.20;54.90;;;;;;5016675;28;20025;-60
2022/01/26 01:49:43;;;;;;;2.28;1.65;;;17.20;54.90;;;;;;5013853;28;20637;-59
2022/01/26 01:52:14;;;;;;;2.47;1.90;;;17.20;54.80;;;;;;5015364;28;20050;-58
2022/01/26 01:54:41;;;;;;;2.63;1.90;;;17.20;54.90;;;;;;5003709;28;20068;-59
2022/01/26 01:57:06;;;;;;;3.38;1.88;;;17.20;54.80;;;;;;5012447;28;20038;-61
2022/01/26 01:59:32;;;;;;;3.00;1.85;;;17.20;54.90;;;;;;5021391;28;20116;-61
2022/01/26 02:01:58;;;;;;;2.42;2.00;;;17.20;54.90;;;;;;5019123;28;20096;-58
2022/01/26 02:04:24;;;;;;;2.38;2.10;;;17.20;54.90;;;;;;5005896;28;20045;-61
2022/01/26 02:06:49;;;;;;;1.92;1.60;;;17.20;54.90;;;;;;5007922;28;20030;-60
2022/01/26 02:09:15;;;;;;;2.45;1.70;;;17.20;54.90;;;;;;5004471;28;20496;-61
2022/01/26 02:11:44;;;;;;;2.88;1.95;;;17.20;54.80;;;;;;5013593;28;20041;-57
2022/01/26 02:14:16;;;;;;;2.55;1.67;;;17.20;54.80;;;;;;5003439;28;20064;-60
2022/01/26 02:17:02;;;;;;;2.35;1.80;;;17.10;54.80;;;;;;5010245;28;20057;-61
2022/01/26 02:50:15;;;;;;;2.10;1.83;;;17.10;54.60;;;;;;5024863;28;20079;-61
2022/01/26 02:55:34;;;;;;;3.25;1.60;;;17.10;54.60;;;;;;5018909;28;20672;-60
2022/01/26 03:00:43;;;;;;;2.95;1.80;;;17.10;54.70;;;;;;5018908;28;20080;-60
2022/01/26 03:03:26;;;;;;;3.03;1.77;;;17.10;54.60;;;;;;5025578;28;20034;-62
2022/01/26 03:06:06;;;;;;;2.05;1.67;;;17.10;54.70;;;;;;5009579;28;20056;-61
2022/01/26 03:08:36;;;;;;;1.67;1.33;;;17.10;54.60;;;;;;5013919;28;20032;-61
2022/01/26 03:11:08;;;;;;;2.38;1.67;;;17.10;54.60;;;;;;5016148;28;20029;-62
2022/01/26 03:13:36;;;;;;;1.60;1.23;;;17.10;54.60;;;;;;5021327;28;20034;-61
2022/01/26 03:16:10;;;;;;;2.13;1.63;;;17.00;54.50;;;;;;5007972;28;20496;-61
2022/01/26 03:18:58;;;;;;;2.72;1.52;;;17.10;54.50;;;;;;5015249;28;20034;-59
2022/01/26 03:21:55;;;;;;;2.55;1.63;;;17.00;54.50;;;;;;5004940;28;20133;-60
2022/01/26 03:29:54;;;;;;;2.80;1.73;;;17.00;54.70;;;;;;5020363;28;20866;-60
2022/01/26 03:32:50;;;;;;;2.10;1.40;;;17.00;54.80;;;;;;5019032;28;20078;-62
2022/01/26 03:35:16;;;;;;;2.33;1.77;;;17.00;54.80;;;;;;5020803;28;20037;-61
2022/01/26 03:37:51;;;;;;;1.65;1.40;;;16.90;54.80;;;;;;5016186;28;20033;-60
2022/01/26 03:40:17;;;;;;;2.40;1.42;;;16.90;54.90;;;;;;5012336;28;20026;-59
2022/01/26 03:42:42;;;;;;;2.47;1.45;;;16.90;54.80;;;;;;5010993;28;20036;-60
2022/01/26 03:45:08;;;;;;;2.00;1.30;;;16.90;54.90;;;;;;5008912;28;20061;-61
2022/01/26 03:47:33;;;;;;;2.05;1.38;;;16.90;54.90;;;;;;5024747;28;20065;-62
2022/01/26 03:49:59;;;;;;;1.63;1.20;;;16.90;54.90;;;;;;5015981;28;20117;-61
2022/01/26 03:52:24;;;;;;;1.60;1.20;;;17.00;55.00;;;;;;5015391;28;20030;-62
2022/01/26 03:54:50;;;;;;;2.20;1.40;;;16.90;54.90;;;;;;4973797;28;20073;-60
2022/01/26 03:57:15;;;;;;;1.50;1.25;;;17.00;54.90;;;;;;5017347;28;20500;-57
2022/01/26 03:59:41;;;;;;;2.13;1.45;;;16.90;54.90;;;;;;5010351;28;20030;-59
2022/01/26 04:02:06;;;;;;;1.67;1.42;;;17.00;54.90;;;;;;5007872;28;20033;-59
2022/01/26 04:04:38;;;;;;;1.98;1.33;;;16.90;54.90;;;;;;5010624;28;20022;-60
2022/01/26 04:07:03;;;;;;;1.65;1.30;;;16.90;54.90;;;;;;5019817;28;20026;-60
2022/01/26 04:09:29;;;;;;;1.38;0.88;;;17.00;54.90;;;;;;5015887;28;20708;-59
2022/01/26 04:11:54;;;;;;;1.67;1.38;;;16.90;54.90;;;;;;5018901;28;20088;-61
2022/01/26 04:14:24;;;;;;;1.70;1.17;;;16.90;54.90;;;;;;5017167;28;20033;-57
2022/01/26 04:16:50;;;;;;;1.88;1.10;;;17.00;55.00;;;;;;5025052;28;20052;-56
2022/01/26 04:19:17;;;;;;;1.80;1.20;;;16.90;54.90;;;;;;5014875;28;21692;-60
2022/01/26 04:27:13;;;;;;;1.67;1.13;;;16.90;54.80;;;;;;5020818;28;20812;-60
2022/01/26 04:29:39;;;;;;;1.85;1.30;;;16.90;54.80;;;;;;5013379;28;20053;-60
2022/01/26 04:32:05;;;;;;;3.40;1.35;;;17.00;54.90;;;;;;5010555;28;20065;-60
2022/01/26 04:34:33;;;;;;;1.65;1.10;;;16.90;54.80;;;;;;5014449;28;20073;-62
2022/01/26 04:37:06;;;;;;;0.95;0.90;;;16.90;54.70;;;;;;5002799;28;20036;-58
2022/01/26 04:39:39;;;;;;;1.20;1.00;;;17.00;54.80;;;;;;5018763;28;20029;-59
2022/01/26 04:42:10;;;;;;;1.67;1.10;;;16.90;54.70;;;;;;5006671;28;20068;-59
2022/01/26 04:44:43;;;;;;;1.85;1.30;;;17.00;54.70;;;;;;5012007;28;20030;-63
2022/01/26 04:47:08;;;;;;;1.45;1.20;;;17.00;54.60;;;;;;5011923;28;20036;-60
2022/01/26 04:49:34;;;;;;;1.63;0.95;;;17.00;54.60;;;;;;5006214;28;20030;-61
2022/01/26 04:52:00;;;;;;;3.85;0.98;;;17.00;54.60;;;;;;5002384;28;20046;-62
2022/01/26 04:54:26;;;;;;;1.33;1.00;;;17.00;54.60;;;;;;5016295;28;20058;-64
2022/01/26 04:56:51;;;;;;;1.75;1.27;;;16.90;54.50;;;;;;5004139;28;20532;-63
2022/01/26 04:59:17;;;;;;;3.10;1.30;;;17.00;54.50;;;;;;5010557;28;20038;-58
2022/01/26 05:01:42;;;;;;;2.38;1.05;;;17.00;54.50;;;;;;5003261;28;20050;-62
2022/01/26 05:04:08;;;;;;;1.42;1.23;;;17.00;54.40;;;;;;5013430;28;20029;-58
2022/01/26 05:06:33;;;;;;;1.38;1.17;;;17.00;54.40;;;;;;5021052;28;20947;-61
2022/01/26 05:08:59;;;;;;;1.38;1.10;;;16.90;54.60;;;;;;5016433;28;20057;-62
2022/01/26 05:11:37;;;;;;;2.47;1.05;;;17.00;54.70;;;;;;5013354;28;20390;-62
2022/01/26 05:14:03;;;;;;;1.85;1.30;;;16.90;54.70;;;;;;5023490;28;20044;-64
2022/01/26 05:16:28;;;;;;;6.03;1.00;;;16.90;54.70;;;;;;5007598;28;20022;-63
2022/01/26 05:18:54;;;;;;;1.58;0.98;;;16.90;54.80;;;;;;5024146;28;20041;-62
2022/01/26 05:21:21;;;;;;;2.08;1.17;;;16.90;54.80;;;;;;5011118;28;20034;-62
2022/01/26 05:23:46;;;;;;;1.40;1.00;;;16.90;54.80;;;;;;5016763;28;20752;-64
2022/01/26 05:26:12;;;;;;;2.70;1.10;;;16.90;54.80;;;;;;5007836;28;20041;-61
2022/01/26 05:28:38;;;;;;;1.40;1.00;;;16.90;54.80;;;;;;5009479;28;20022;-61
2022/01/26 05:31:04;;;;;;;2.15;1.30;;;16.90;54.80;;;;;;5009037;28;20547;-62
2022/01/26 05:33:30;;;;;;;3.80;1.38;;;16.90;54.70;;;;;;5008729;28;20144;-60
2022/01/26 05:35:55;;;;;;;1.52;1.00;;;16.90;54.70;;;;;;5008758;28;20034;-62
2022/01/26 05:38:21;;;;;;;0.85;0.85;;;17.00;54.70;;;;;;5023879;28;20075;-63
2022/01/26 05:40:46;;;;;;;2.90;1.10;;;16.90;54.60;;;;;;5011614;28;20076;-62
2022/01/26 05:43:14;;;;;;;1.88;1.08;;;16.90;54.50;;;;;;5013097;28;20033;-60
2022/01/26 05:45:41;;;;;;;2.03;1.40;;;16.90;54.50;;;;;;5018025;28;20400;-61
2022/01/26 05:48:10;;;;;;;1.92;0.98;;;17.00;54.50;;;;;;5011895;28;20532;-62
2022/01/26 05:50:37;;;;;;;1.50;1.10;;;17.00;54.40;;;;;;5006272;28;20030;-62
2022/01/26 05:53:03;;;;;;;3.00;1.30;;;17.00;54.30;;;;;;5020110;28;20033;-62
2022/01/26 05:55:28;;;;;;;1.77;1.00;;;17.00;54.40;;;;;;5007510;28;20508;-63
2022/01/26 05:57:54;;;;;;;1.75;1.00;;;17.00;54.30;;;;;;5018713;28;20124;-65
2022/01/26 06:00:19;;;;;;;2.42;1.15;;;17.00;54.20;;;;;;5015609;28;20076;-64
2022/01/26 06:02:45;;;;;;;2.20;1.40;;;17.00;54.20;;;;;;5003491;28;20022;-63
2022/01/26 06:05:10;;;;;;;2.40;1.30;;;16.90;54.20;;;;;;5008466;28;20436;-61
2022/01/26 06:07:36;;;;;;;1.63;1.27;;;16.90;54.30;;;;;;5010227;28;20119;-63
2022/01/26 06:10:02;;;;;;;1.92;1.40;;;16.90;54.20;;;;;;5016555;28;20724;-61
2022/01/26 06:12:29;;;;;;;1.35;1.00;;;16.90;54.30;;;;;;5008484;28;20080;-62
2022/01/26 06:14:55;;;;;;;2.00;1.10;;;16.90;54.20;;;;;;5009762;28;20079;-62
2022/01/26 06:17:20;;;;;;;1.60;1.05;;;16.90;54.20;;;;;;5007148;28;20041;-61
2022/01/26 06:19:46;;;;;;;1.65;1.23;;;16.90;54.30;;;;;;5009691;28;20037;-65
2022/01/26 06:22:11;;;;;;;1.08;0.93;;;16.90;54.30;;;;;;5007759;28;20052;-62
2022/01/26 06:24:37;;;;;;;2.47;1.52;;;16.90;54.40;;;;;;5014925;28;20120;-62
2022/01/26 06:27:03;;;;;;;2.72;1.60;;;16.90;54.40;;;;;;5017489;28;20036;-61
2022/01/26 06:29:30;;;;;;;2.75;1.50;;;16.90;54.70;;;;;;5018686;28;20030;-63
2022/01/26 06:31:56;;;;;;;2.10;1.17;;;16.90;55.00;;;;;;5014076;28;20076;-67
2022/01/26 06:34:21;;;;;;;4.38;1.27;;;16.90;55.70;;;;;;5017159;28;20033;-62
2022/01/26 06:36:47;;;;;;;3.55;1.40;;;16.80;55.10;;;;;;5019353;28;20021;-65
2022/01/26 06:39:13;;;;;;;1.90;1.55;;;16.80;55.20;;;;;;5009351;28;20018;-64
2022/01/26 06:41:45;;;;;;;2.47;1.23;;;16.80;55.20;;;;;;5018226;28;20030;-64
2022/01/26 06:44:27;;;;;;;4.10;1.35;;;16.80;55.20;;;;;;5007228;28;20117;-64
2022/01/26 06:47:03;;;;;;;2.75;1.35;;;16.80;55.30;;;;;;5012897;28;20037;-63
2022/01/26 06:49:29;;;;;;;3.10;1.38;;;16.80;55.30;;;;;;5013549;28;20610;-64
2022/01/26 06:51:54;;;;;;;5.20;1.60;;;16.80;55.30;;;;;;5013471;28;20038;-60
2022/01/26 06:54:20;;;;;;;1.90;1.10;;;16.80;55.20;;;;;;5005815;28;20084;-60
2022/01/26 06:56:45;;;;;;;3.88;1.30;;;16.80;55.90;;;;;;5010129;28;20040;-64
2022/01/26 06:59:12;;;;;;;2.47;1.20;;;16.80;55.10;;;;;;5013185;28;20048;-60
2022/01/26 07:01:38;;;;;;;4.97;1.42;;;16.80;55.00;;;;;;5003268;28;20412;-62
2022/01/26 07:04:03;;;;;;;3.30;1.58;;;16.80;55.00;;;;;;5011756;28;20030;-62
2022/01/26 07:06:29;;;;;;;4.38;1.50;;;16.80;54.90;;;;;;5004866;28;20030;-61
2022/01/26 07:08:54;;;;;;;4.57;1.88;;;16.80;54.90;;;;;;5015515;28;20528;-62
2022/01/26 07:11:20;;;;;;;4.28;1.83;;;16.80;54.80;;;;;;5013022;28;20493;-63
2022/01/26 07:13:46;;;;;;;6.18;1.63;;;16.80;54.90;;;;;;5008848;28;20477;-65
2022/01/26 07:21:39;;;;;;;56.13;21.30;;;16.80;55.80;;;;;;5022912;28;20076;-63
2022/01/26 07:24:05;;;;;;;47.88;21.55;;;16.80;56.70;;;;;;5016655;28;20489;-62
2022/01/26 07:26:31;;;;;;;44.53;22.13;;;16.80;57.20;;;;;;5026113;28;20112;-62
2022/01/26 07:29:05;;;;;;;44.65;21.90;;;16.80;57.50;;;;;;5024686;28;20056;-64
2022/01/26 07:31:33;;;;;;;47.65;20.63;;;16.80;57.70;;;;;;5021570;28;20112;-61
2022/01/26 07:33:58;;;;;;;49.97;20.00;;;16.80;57.80;;;;;;5011270;28;20026;-61
2022/01/26 07:36:24;;;;;;;44.08;19.17;;;16.80;57.90;;;;;;5005912;28;20028;-61
2022/01/26 07:38:51;;;;;;;41.50;17.67;;;16.80;57.70;;;;;;5010023;28;20033;-62
2022/01/26 07:41:17;;;;;;;34.03;17.65;;;16.80;57.50;;;;;;5011235;28;20560;-61
2022/01/26 07:43:43;;;;;;;40.78;17.15;;;16.80;57.30;;;;;;5023811;28;20610;-63
2022/01/26 07:46:09;;;;;;;36.15;16.75;;;16.80;57.10;;;;;;5024250;28;20037;-60
2022/01/26 07:48:35;;;;;;;34.00;15.98;;;16.80;56.90;;;;;;5014868;28;20112;-63
2022/01/26 07:51:01;;;;;;;33.22;14.98;;;16.70;56.80;;;;;;5014383;28;20125;-62
2022/01/26 07:53:26;;;;;;;35.13;15.20;;;16.80;56.70;;;;;;5011994;28;20033;-62
2022/01/26 07:55:52;;;;;;;32.97;15.25;;;16.80;56.60;;;;;;5017723;28;20033;-64
2022/01/26 07:58:18;;;;;;;29.67;13.13;;;16.80;56.40;;;;;;5015235;28;20026;-64
2022/01/26 08:00:44;;;;;;;32.92;14.80;;;16.80;56.30;;;;;;5010414;28;20026;-62
2022/01/26 08:03:09;;;;;;;28.98;13.55;;;16.80;56.20;;;;;;5008361;28;20108;-62
2022/01/26 08:05:35;;;;;;;31.13;12.40;;;16.80;56.10;;;;;;5012221;28;20017;-66
2022/01/26 08:08:00;;;;;;;27.98;13.52;;;16.80;56.00;;;;;;5016015;28;20042;-60
2022/01/26 08:10:26;;;;;;;26.40;12.75;;;16.80;56.50;;;;;;5008134;28;20029;-62
2022/01/26 08:12:51;;;;;;;24.65;12.48;;;16.80;57.60;;;;;;5018450;28;20025;-64
2022/01/26 08:15:18;;;;;;;23.70;10.43;;;16.80;58.10;;;;;;5023890;28;20033;-61
2022/01/26 08:17:44;;;;;;;18.35;10.30;;;16.80;58.30;;;;;;5020529;28;20113;-62
2022/01/26 08:20:10;;;;;;;15.15;8.45;;;16.80;58.60;;;;;;5017914;28;20128;-65
2022/01/26 08:22:36;;;;;;;17.38;8.43;;;16.80;58.70;;;;;;5011710;28;20034;-59
2022/01/26 08:25:01;;;;;;;20.17;7.40;;;16.80;58.80;;;;;;5012540;28;20026;-62
2022/01/26 08:27:32;;;;;;;17.83;8.07;;;16.80;58.60;;;;;;5022610;28;20030;-62
2022/01/26 08:30:05;;;;;;;16.13;7.55;;;16.80;58.50;;;;;;5023552;28;20117;-60
2022/01/26 08:32:31;;;;;;;15.68;6.53;;;16.80;58.40;;;;;;5014279;28;20030;-62
2022/01/26 08:34:56;;;;;;;15.25;6.30;;;16.80;58.50;;;;;;5018130;28;20033;-60
2022/01/26 08:37:22;;;;;;;20.17;6.43;;;16.80;58.40;;;;;;5013722;28;20034;-62
2022/01/26 08:39:48;;;;;;;14.30;6.25;;;16.80;58.30;;;;;;5023435;28;20117;-63
2022/01/26 08:42:13;;;;;;;15.95;7.25;;;16.80;58.10;;;;;;5019076;28;20503;-63
2022/01/26 08:44:39;;;;;;;13.68;5.88;;;16.80;58.00;;;;;;5022306;28;20026;-61
2022/01/26 08:47:04;;;;;;;16.27;5.47;;;16.80;58.00;;;;;;5011053;28;20037;-61
2022/01/26 08:49:31;;;;;;;14.63;5.43;;;16.80;57.90;;;;;;5011466;28;20480;-59
2022/01/26 08:51:56;;;;;;;13.13;5.93;;;16.80;57.90;;;;;;5014259;28;20080;-61
2022/01/26 08:54:22;;;;;;;11.35;5.40;;;16.80;57.80;;;;;;5028217;28;20644;-61
2022/01/26 08:56:49;;;;;;;21.02;5.75;;;16.80;57.80;;;;;;5020022;28;20025;-60
2022/01/26 08:59:14;;;;;;;11.38;5.35;;;16.80;57.70;;;;;;5021024;28;20034;-61
2022/01/26 09:01:40;;;;;;;12.90;6.00;;;16.80;57.70;;;;;;5013790;28;20041;-58
2022/01/26 09:04:05;;;;;;;14.05;5.40;;;16.80;57.60;;;;;;5006569;28;20030;-59
2022/01/26 09:06:33;;;;;;;11.65;4.90;;;16.80;57.50;;;;;;5014356;28;20026;-62
2022/01/26 09:09:04;;;;;;;12.15;4.10;;;16.80;57.50;;;;;;5013942;28;20022;-59
2022/01/26 09:11:29;;;;;;;9.77;4.32;;;16.80;57.60;;;;;;5021860;28;20681;-61
2022/01/26 09:13:59;;;;;;;10.88;4.93;;;16.80;58.10;;;;;;5012546;28;20034;-59
2022/01/26 09:16:25;;;;;;;10.48;5.00;;;16.80;57.50;;;;;;5019650;28;20088;-62
2022/01/26 09:18:58;;;;;;;12.52;4.93;;;16.80;57.40;;;;;;5010495;28;20607;-60
2022/01/26 09:21:25;;;;;;;10.40;4.35;;;16.80;57.40;;;;;;5017320;28;20105;-61
2022/01/26 09:23:50;;;;;;;13.35;4.20;;;16.80;57.40;;;;;;5016582;28;20100;-61
2022/01/26 09:26:16;;;;;;;15.00;5.80;;;16.80;57.40;;;;;;5015256;28;20108;-61
2022/01/26 09:28:41;;;;;;;12.18;4.28;;;16.80;57.40;;;;;;5022240;28;20030;-61
2022/01/26 09:31:07;;;;;;;12.98;4.15;;;16.80;57.30;;;;;;5015168;28;20447;-61
2022/01/26 09:33:32;;;;;;;10.52;5.15;;;16.80;57.40;;;;;;5022245;28;20026;-62
2022/01/26 09:35:58;;;;;;;13.35;4.28;;;16.70;57.30;;;;;;5011227;28;20075;-62
2022/01/26 09:38:23;;;;;;;7.60;4.03;;;16.80;57.40;;;;;;5023986;28;20088;-60
2022/01/26 09:40:49;;;;;;;7.40;4.22;;;16.70;57.30;;;;;;5005019;28;20076;-63
2022/01/26 09:43:16;;;;;;;11.73;4.00;;;16.80;57.40;;;;;;5008999;28;20041;-61
2022/01/26 09:45:42;;;;;;;11.90;3.88;;;16.80;57.40;;;;;;5012079;28;20050;-61
2022/01/26 09:48:08;;;;;;;9.65;4.82;;;16.80;57.40;;;;;;5012992;28;20068;-62
2022/01/26 09:50:33;;;;;;;9.68;3.88;;;16.80;57.30;;;;;;5018522;28;20061;-62
2022/01/26 09:52:59;;;;;;;6.78;4.38;;;16.80;57.30;;;;;;5020788;28;20037;-62
2022/01/26 09:55:24;;;;;;;9.13;4.35;;;16.80;58.00;;;;;;5017655;28;20025;-60
2022/01/26 09:57:57;;;;;;;11.93;3.85;;;16.70;57.50;;;;;;5015172;28;20102;-63
2022/01/26 10:00:22;;;;;;;7.97;3.53;;;16.70;57.60;;;;;;5013993;28;20070;-61
2022/01/26 10:02:55;;;;;;;7.72;3.60;;;16.70;57.70;;;;;;5007753;28;20041;-60
2022/01/26 10:05:21;;;;;;;8.68;3.63;;;16.70;57.70;;;;;;5015046;28;20037;-63
2022/01/26 10:08:09;;;;;;;6.85;3.60;;;16.70;57.80;;;;;;5015315;28;20041;-60
2022/01/26 10:15:27;;;;;;;5.20;3.17;;;16.70;57.90;;;;;;5004934;28;20034;-62
2022/01/26 10:16:49;;;;;;;5.53;3.13;;;16.70;58.20;;;;;;5003909;28;20183;-62
2022/01/26 10:19:05;;;;;;;5.55;2.70;;;16.70;58.30;;;;;;5003282;28;20044;-61
2022/01/26 10:21:31;;;;;;;7.53;3.33;;;16.70;58.40;;;;;;5021935;28;20026;-61
2022/01/26 10:24:09;;;;;;;7.53;3.50;;;16.70;58.40;;;;;;5013313;28;20509;-60
2022/01/26 10:26:34;;;;;;;7.75;3.10;;;16.70;58.40;;;;;;5007946;28;20033;-61
2022/01/26 10:29:02;;;;;;;5.68;2.88;;;16.70;58.50;;;;;;5007452;28;20041;-62
2022/01/26 10:31:29;;;;;;;7.45;2.72;;;16.70;58.50;;;;;;5020778;28;20052;-59
2022/01/26 10:33:55;;;;;;;5.28;2.70;;;16.80;58.50;;;;;;5019591;28;20038;-62
2022/01/26 10:36:21;;;;;;;6.82;2.83;;;16.80;58.50;;;;;;5005624;28;20460;-62
2022/01/26 10:39:00;;;;;;;5.22;2.78;;;16.70;58.40;;;;;;5019347;28;20022;-62
2022/01/26 10:41:26;;;;;;;5.65;2.40;;;16.80;58.30;;;;;;5006177;28;20450;-62
2022/01/26 10:43:54;;;;;;;6.28;2.70;;;16.80;58.30;;;;;;5011758;28;20114;-61
2022/01/26 10:46:27;;;;;;;5.80;2.40;;;16.80;58.30;;;;;;5007518;28;20034;-62
2022/01/26 10:49:15;;;;;;;3.50;2.25;;;16.80;58.10;;;;;;5021709;28;20416;-62
2022/01/26 10:54:21;;;;;;;4.35;2.17;;;16.80;57.80;;;;;;5014021;28;20459;-61
2022/01/26 10:56:47;;;;;;;7.47;2.83;;;16.80;57.80;;;;;;5005055;28;20037;-61
2022/01/26 10:59:13;;;;;;;3.95;2.17;;;16.90;58.10;;;;;;5012514;28;20037;-62
2022/01/26 11:01:39;;;;;;;5.85;2.08;;;16.80;58.10;;;;;;5014879;28;20032;-61
2022/01/26 11:04:04;;;;;;;3.88;1.67;;;16.80;58.20;;;;;;5019781;28;20565;-62
2022/01/26 11:06:30;;;;;;;4.55;2.00;;;16.80;58.10;;;;;;5009343;28;20164;-61
2022/01/26 11:09:02;;;;;;;5.97;2.63;;;16.90;58.30;;;;;;5017877;28;20408;-62
2022/01/26 11:11:28;;;;;;;4.13;1.90;;;16.90;58.10;;;;;;5013763;28;20562;-61
2022/01/26 11:13:53;;;;;;;2.28;1.67;;;16.90;58.10;;;;;;5017821;28;20033;-62
2022/01/26 11:16:19;;;;;;;4.25;1.85;;;16.90;58.30;;;;;;5016823;28;20068;-63
2022/01/26 11:18:52;;;;;;;4.75;1.83;;;16.90;58.40;;;;;;5018697;28;20135;-61
2022/01/26 11:21:27;;;;;;;4.63;1.83;;;16.90;58.50;;;;;;5018335;28;20034;-62
2022/01/26 11:24:04;;;;;;;4.30;1.95;;;16.90;58.50;;;;;;5012281;28;20547;-61
2022/01/26 11:26:29;;;;;;;6.25;2.22;;;16.90;58.50;;;;;;5014773;28;20523;-61
2022/01/26 11:28:55;;;;;;;6.15;1.70;;;16.90;58.50;;;;;;5014814;28;20029;-60
2022/01/26 11:31:21;;;;;;;1.55;1.30;;;16.90;58.50;;;;;;5016920;28;20041;-59
2022/01/26 11:33:48;;;;;;;3.75;1.50;;;16.90;58.40;;;;;;5013728;28;20032;-62
2022/01/26 11:36:16;;;;;;;5.13;2.00;;;16.90;58.40;;;;;;5014839;28;20038;-63
2022/01/26 11:47:18;;;;;;;2.45;1.52;;;16.90;58.40;;;;;;5014249;28;20531;-62
2022/01/26 11:49:44;;;;;;;3.15;1.70;;;17.00;58.30;;;;;;5019003;28;20041;-62
2022/01/26 11:52:29;;;;;;;5.00;1.92;;;17.00;58.20;;;;;;5013479;28;20095;-62
2022/01/26 11:54:57;;;;;;;4.47;1.73;;;17.00;58.10;;;;;;5018323;28;20642;-62
2022/01/26 11:57:44;;;;;;;2.67;2.05;;;17.00;58.10;;;;;;5018394;28;20037;-62
2022/01/26 12:00:12;;;;;;;3.38;1.92;;;17.00;58.00;;;;;;5008652;28;20030;-63
2022/01/26 12:05:16;;;;;;;2.90;1.80;;;17.00;57.90;;;;;;5015652;28;20040;-63
2022/01/26 12:07:51;;;;;;;2.88;1.52;;;17.00;57.90;;;;;;5022556;28;20040;-62
2022/01/26 12:10:39;;;;;;;3.95;1.45;;;17.00;57.80;;;;;;5032659;23;20071;-62
2022/01/26 12:13:06;;;;;;;3.25;1.88;;;17.00;57.70;;;;;;4996651;28;20181;-63
2022/01/26 12:15:43;;;;;;;3.28;1.65;;;17.00;57.60;;;;;;4989542;28;20030;-63
2022/01/26 12:32:20;;;;;;;5.13;2.40;;;17.10;57.50;;;;;;4994690;28;20061;-63
2022/01/26 12:35:06;;;;;;;12.38;4.55;;;17.00;57.40;;;;;;4984827;28;20038;-63
2022/01/26 12:38:04;;;;;;;19.45;7.25;;;17.10;57.50;;;;;;4992360;28;20667;-63
2022/01/26 12:43:45;;;;;;;25.67;8.77;;;17.00;58.00;;;;;;4997210;28;20037;-63
2022/01/26 12:46:12;;;;;;;19.98;7.85;;;17.00;58.30;;;;;;4995157;28;20801;-63
2022/01/26 12:48:40;;;;;;;15.02;6.88;;;17.00;58.40;;;;;;4991137;28;20042;-62
2022/01/26 12:51:06;;;;;;;21.52;7.22;;;17.00;58.40;;;;;;4999205;28;20093;-63
2022/01/26 12:53:38;;;;;;;13.43;6.82;;;17.00;58.30;;;;;;4995773;28;20033;-63
2022/01/26 12:56:08;;;;;;;15.85;5.82;;;17.00;58.60;;;;;;5007613;28;20511;-63
2022/01/26 12:58:35;;;;;;;15.73;5.88;;;17.00;58.60;;;;;;4998057;28;20464;-63
2022/01/26 13:01:04;;;;;;;15.57;6.20;;;17.00;58.60;;;;;;4956303;28;20038;-63
2022/01/26 13:03:34;;;;;;;13.70;4.80;;;17.00;58.60;;;;;;4992655;28;20034;-63
2022/01/26 13:06:06;;;;;;;12.48;6.45;;;17.00;58.70;;;;;;4997582;28;20038;-63
2022/01/26 13:08:42;;;;;;;11.88;5.40;;;17.00;58.60;;;;;;4996853;28;20030;-63
2022/01/26 13:11:08;;;;;;;10.88;5.20;;;17.00;58.60;;;;;;4994669;28;20038;-63
2022/01/26 13:13:33;;;;;;;12.80;4.78;;;17.00;58.50;;;;;;4998062;28;20029;-62
2022/01/26 13:16:11;;;;;;;10.73;4.60;;;17.00;58.30;;;;;;5000142;28;20069;-63
2022/01/26 13:21:30;;;;;;;9.60;4.53;;;17.00;58.40;;;;;;5000166;28;20033;-63
2022/01/26 13:27:56;;;;;;;11.02;4.85;;;17.00;58.40;;;;;;4956460;28;20073;-62
2022/01/26 13:35:28;;;;;;;11.20;4.13;;;17.10;58.60;;;;;;4993302;28;20080;-64
2022/01/26 13:38:21;;;;;;;9.00;4.18;;;17.10;58.70;;;;;;5006956;28;20036;-63
2022/01/26 13:40:56;;;;;;;8.95;4.05;;;17.10;58.70;;;;;;4996989;28;20026;-63
2022/01/26 13:46:47;;;;;;;6.50;3.13;;;17.10;58.80;;;;;;4994237;28;19909;-63
2022/01/26 13:49:18;;;;;;;8.23;3.50;;;17.10;58.70;;;;;;4986621;28;20027;-62
2022/01/26 13:59:19;;;;;;;8.02;3.60;;;17.10;58.20;;;;;;4994738;28;20035;-62
2022/01/26 14:01:46;;;;;;;7.50;3.60;;;17.10;58.10;;;;;;4989897;28;20197;-62
2022/01/26 14:04:14;;;;;;;6.15;3.20;;;17.10;58.00;;;;;;4991909;28;20050;-63
2022/01/26 14:06:39;;;;;;;6.05;3.13;;;17.10;57.80;;;;;;4998888;28;20037;-65
2022/01/26 14:09:05;;;;;;;7.13;3.42;;;17.10;57.70;;;;;;4993970;28;20092;-57
2022/01/26 14:11:30;;;;;;;5.90;3.15;;;17.10;57.60;;;;;;4985323;28;20522;-62
2022/01/26 14:13:58;;;;;;;7.95;3.05;;;17.10;57.60;;;;;;5004545;28;20120;-60
2022/01/26 14:16:25;;;;;;;7.78;2.88;;;17.20;57.60;;;;;;4998959;28;20030;-62
2022/01/26 14:19:05;;;;;;;7.00;2.78;;;17.20;57.50;;;;;;4996068;28;20030;-63
2022/01/26 14:26:25;;;;;;;6.32;2.45;;;17.20;57.40;;;;;;4987142;28;20095;-62
2022/01/26 14:28:50;;;;;;;8.55;2.80;;;17.20;57.10;;;;;;4994259;28;20033;-62
2022/01/26 14:31:37;;;;;;;5.40;2.50;;;17.20;57.10;;;;;;4972741;28;20029;-61
2022/01/26 14:56:13;;;;;;;3.58;2.28;;;17.20;56.90;;;;;;4988215;28;20731;-63
2022/01/26 15:00:08;;;;;;;;;;;17.20;57.00;;;;;;5001081;28;20027;-63
2022/01/26 15:10:49;;;;;;;4.40;3.03;;;17.20;57.60;;;;;;4995492;28;20571;-62
2022/01/26 15:32:42;;;;;;;5.40;2.47;;;17.20;58.10;;;;;;4986027;28;20516;-59
2022/01/26 15:42:36;;;;;;;4.70;2.30;;;17.20;57.70;;;;;;4999742;28;20037;-63
2022/01/26 15:58:19;;;;;;;3.80;2.45;;;17.20;57.20;;;;;;5009866;28;20411;-62
2022/01/26 16:06:36;;;;;;;3.08;2.28;;;17.20;57.00;;;;;;4993658;28;20037;-61
2022/01/26 16:20:14;;;;;;;5.30;2.53;;;17.20;56.60;;;;;;4998611;28;20073;-64
2022/01/26 16:26:22;;;;;;;4.35;2.70;;;17.30;56.60;;;;;;4997473;28;20049;-58
2022/01/26 16:37:40;;;;;;;3.13;2.60;;;17.30;56.20;;;;;;4996883;28;20039;-62
2022/01/26 17:26:19;;;;;;;6.38;3.22;;;17.30;55.40;;;;;;4988845;28;20025;-59
2022/01/26 18:46:25;;;;;;;5.18;3.05;;;17.10;55.00;;;;;;4988439;28;20070;-62